Aérodrome :
LOGIN :

S'inscrire | Disclaimer

   EN    FR    IT 

 










Légende :    VFR   VFR Marginal   IFR   IFR Intensif   IFR Très Intensif
Visi : 
Plafond : 
>= 8 km
>= 3000ft
5 à 8 km
1000 à 3000 ft
1500m à 5 km
500 à 1000 ft
800 à 1500m
200 à 500 ft
< 800m
< 200 ft
Symboles :   Orages  Brouillard  Fortes neiges  Fortes précipitations  Vent > 20 kt
SIGMETs :   Divers  Orages  Givrage  Turbulence  Onde Orograph.  Cendres Volcan.







- Altitude de l'aérodrome : 160 ft
- Code IATA : FMO


EDDG - Münster Osnabrück Int.

DERNIER METAR :
  • 140950Z 26015KT 9999 SCT022 SCT040 21/14 Q1012 NOSIG

METARs EXPIRÉS :
  • 140920Z 27011KT 230V290 9999 SCT020 BKN040 20/15 Q1011 NOSIG
  • 140850Z 26016KT 9999 FEW016 SCT018 BKN040 19/15 Q1011 NOSIG
  • 140820Z 26013KT 9999 FEW009 SCT012 BKN027 18/16 Q1011 TEMPO BKN012
  • 140750Z 27014KT 6000 -RA FEW009 BKN012 18/16 Q1011 BECMG BKN015
  • 140720Z 26012KT 9999 -RA FEW009 BKN012 18/16 Q1010 BECMG BKN015

TAF TAF EDDG
Valide du 14 à 06h jusqu'au 15 à 06h UTC


140500Z 1406/1506 23006KT 9999 BKN014
TEMPO 1406/1408 4500 RADZ BR BKN008
BECMG 1407/1410 27012KT SCT020
TEMPO 1410/1415 28015G25KT
BECMG 1418/1421 24004KT
Pas de NOTAMs connus pour ce terrain.



MET'MAP, la Météo Aéronautique d'un coup d'oeil ! - Copyright ORBIFLY Décembre 2007 - Disclaimer

ORBIFLY MET'MAP TEAM :

Programmation & Développement : Alexandra Zaïnal
Conception & Développement : Baudouin d'Aumeries
Co-Programmation & Développement : Marc-Olivier Méhu
Soutien technique & logistique : Manuel Goepfert

Contact : metmap@orbifly.com




SOURCES & CREDITS :

   NOAA